createdAt,value
2023-05-18T00:00:17.321Z,23.182979
2023-05-18T00:05:15.926Z,23.000709
2023-05-18T00:10:16.110Z,22.790071
2023-05-18T00:15:16.122Z,23.173571
2023-05-18T00:20:16.147Z,23.367832
2023-05-18T00:25:15.836Z,23.185714
2023-05-18T00:30:17.345Z,23.011348
2023-05-18T00:35:16.600Z,23.082979
2023-05-18T00:40:16.862Z,22.970213
2023-05-18T00:45:16.015Z,22.825532
2023-05-18T00:50:16.142Z,22.904255
2023-05-18T00:55:15.897Z,23.120423
2023-05-18T01:00:16.451Z,23.009220
2023-05-18T01:05:15.844Z,23.097872
2023-05-18T01:10:15.865Z,22.995745
2023-05-18T01:15:16.485Z,23.152482
2023-05-18T01:20:16.972Z,23.262143
2023-05-18T01:25:16.062Z,23.516312
2023-05-18T01:30:16.695Z,23.315385
2023-05-18T01:35:16.525Z,23.191549
2023-05-18T01:40:15.823Z,22.807092
2023-05-18T01:45:16.026Z,22.511268
2023-05-18T01:50:17.624Z,22.597163
2023-05-18T01:55:17.230Z,22.639437
2023-05-18T02:00:15.816Z,22.651748
2023-05-18T02:05:15.678Z,22.331469
2023-05-18T02:10:16.088Z,22.364085
2023-05-18T02:15:16.124Z,22.584615
2023-05-18T02:20:16.262Z,23.047917
2023-05-18T02:25:16.223Z,23.604895
2023-05-18T02:30:16.317Z,23.664138
2023-05-18T02:35:16.170Z,24.079592
2023-05-18T02:40:16.249Z,24.061538
2023-05-18T02:45:16.826Z,23.774483
2023-05-18T02:50:16.586Z,23.468750
2023-05-18T02:55:17.488Z,23.296479
2023-05-18T03:00:15.941Z,23.095775
2023-05-18T03:05:16.320Z,22.853147
2023-05-18T03:10:16.956Z,22.620567
2023-05-18T03:15:16.705Z,22.158451
2023-05-18T03:20:16.275Z,21.895070
2023-05-18T03:25:15.970Z,21.785816
2023-05-18T03:30:16.262Z,21.441259
2023-05-18T03:35:16.119Z,20.992199
2023-05-18T03:40:15.921Z,20.676429
2023-05-18T03:45:16.185Z,20.625352
2023-05-18T03:50:15.737Z,20.628369
2023-05-18T03:55:15.893Z,20.582394
2023-05-18T04:00:15.991Z,20.568085
2023-05-18T04:05:15.915Z,20.528369
2023-05-18T04:10:15.918Z,20.500699
2023-05-18T04:15:16.228Z,20.506383
2023-05-18T04:20:16.560Z,20.494406
2023-05-18T04:25:17.868Z,20.500000
2023-05-18T04:30:17.211Z,20.498582
2023-05-18T04:35:17.813Z,20.408511
2023-05-18T04:40:17.272Z,20.192908
2023-05-18T04:45:16.199Z,20.054930
2023-05-18T04:50:15.739Z,19.828873
2023-05-18T04:55:16.293Z,19.429078
2023-05-18T05:00:16.048Z,19.029577
2023-05-18T05:05:16.356Z,18.793007
2023-05-18T05:10:15.718Z,18.488732
2023-05-18T05:15:16.803Z,18.317606
2023-05-18T05:20:16.125Z,18.057447
2023-05-18T05:25:15.873Z,17.938732
2023-05-18T05:30:15.995Z,17.743662
2023-05-18T05:35:15.885Z,17.717143
2023-05-18T05:40:16.163Z,17.596429
2023-05-18T05:45:16.264Z,17.288652
2023-05-18T05:50:16.224Z,17.074126
2023-05-18T05:55:16.582Z,17.198582
2023-05-18T06:00:16.160Z,17.109929
2023-05-18T06:05:16.474Z,17.170922
2023-05-18T06:10:16.716Z,17.231915
2023-05-18T06:15:15.822Z,17.032624
2023-05-18T06:20:15.902Z,17.068794
2023-05-18T06:25:16.355Z,16.869504
2023-05-18T06:30:16.042Z,16.795070
2023-05-18T06:35:17.173Z,16.977465
2023-05-18T06:40:16.082Z,16.787413
2023-05-18T06:45:15.980Z,16.738028
2023-05-18T06:50:16.113Z,16.548936
2023-05-18T06:55:16.815Z,16.524823
2023-05-18T07:00:15.768Z,16.496454
2023-05-18T07:05:15.953Z,16.526950
2023-05-18T07:10:16.085Z,16.555245
2023-05-18T07:15:15.826Z,16.542254
2023-05-18T07:20:15.725Z,16.440559
2023-05-18T07:25:16.698Z,16.321678
2023-05-18T07:30:15.777Z,16.311806
2023-05-18T07:35:16.003Z,16.301399
2023-05-18T07:40:15.812Z,16.291608
2023-05-18T07:45:16.183Z,16.250000
2023-05-18T07:50:16.176Z,16.150694
2023-05-18T07:55:16.067Z,16.016197
2023-05-18T08:00:16.112Z,15.964828
2023-05-18T08:05:16.252Z,16.094406
2023-05-18T08:10:16.312Z,15.882069
2023-05-18T08:15:15.744Z,15.824476
2023-05-18T08:20:16.350Z,15.973611
2023-05-18T08:25:15.969Z,15.992361
2023-05-18T08:30:16.407Z,15.880690
2023-05-18T08:35:16.512Z,15.810417
2023-05-18T08:40:16.544Z,15.683916
2023-05-18T08:45:16.587Z,15.563636
2023-05-18T08:50:15.931Z,15.545517
2023-05-18T08:55:15.761Z,15.550685
2023-05-18T09:00:16.019Z,15.567133
2023-05-18T09:05:15.881Z,15.493750
2023-05-18T09:10:17.076Z,15.387500
2023-05-18T09:15:17.575Z,15.291608
2023-05-18T09:20:16.226Z,15.230282
2023-05-18T09:25:16.177Z,15.177305
2023-05-18T09:30:16.009Z,15.089362
2023-05-18T09:35:15.984Z,15.117730
2023-05-18T09:40:16.187Z,15.121127
2023-05-18T09:45:16.000Z,15.061972
2023-05-18T09:50:17.294Z,15.029078
2023-05-18T09:55:16.118Z,15.070423
2023-05-18T10:00:17.002Z,15.148227
2023-05-18T10:05:17.207Z,15.197183
2023-05-18T10:10:16.428Z,15.054225
2023-05-18T10:15:16.446Z,14.944056
2023-05-18T10:20:16.084Z,14.848980
2023-05-18T10:25:16.621Z,14.873793
2023-05-18T10:30:16.431Z,14.927778
2023-05-18T10:35:16.200Z,15.131250
2023-05-18T10:40:15.940Z,15.110490
2023-05-18T10:45:15.791Z,14.923404
2023-05-18T10:50:16.292Z,14.798582
2023-05-18T10:55:15.937Z,14.795070
2023-05-18T11:00:16.534Z,14.738028
2023-05-18T11:05:16.389Z,14.710563
2023-05-18T11:10:16.017Z,14.661972
2023-05-18T11:15:15.959Z,14.570423
2023-05-18T11:20:15.738Z,14.522535
2023-05-18T11:25:16.240Z,14.547222
2023-05-18T11:30:16.341Z,14.646853
2023-05-18T11:35:15.911Z,14.596479
2023-05-18T11:40:16.464Z,14.439716
2023-05-18T11:45:16.974Z,14.401408
2023-05-18T11:50:16.985Z,14.342254
2023-05-18T11:55:16.467Z,14.434043
2023-05-18T12:00:15.886Z,14.335915
2023-05-18T12:05:16.099Z,14.276923
2023-05-18T12:10:15.802Z,14.351748
2023-05-18T12:15:17.359Z,14.351049
2023-05-18T12:20:16.486Z,14.387413
2023-05-18T12:25:15.682Z,14.323944
2023-05-18T12:30:16.363Z,14.304225
2023-05-18T12:35:16.417Z,14.345455
2023-05-18T12:40:16.414Z,14.297842
2023-05-18T12:45:15.826Z,14.246099
2023-05-18T12:50:15.717Z,14.251429
2023-05-18T12:55:16.386Z,14.465248
2023-05-18T13:00:15.905Z,14.461268
2023-05-18T13:05:16.079Z,14.293662
2023-05-18T13:10:15.831Z,14.674648
2023-05-18T13:15:16.097Z,14.825352
2023-05-18T13:20:15.743Z,14.414894
2023-05-18T13:25:16.587Z,14.309929
2023-05-18T13:30:27.314Z,14.658156
2023-05-18T13:35:16.557Z,14.874468
2023-05-18T13:40:15.907Z,15.409220
2023-05-18T13:45:16.464Z,15.400709
2023-05-18T13:50:16.089Z,15.334507
2023-05-18T13:55:16.001Z,15.196528
2023-05-18T14:00:15.799Z,15.404196
2023-05-18T14:05:15.886Z,15.032867
2023-05-18T14:10:15.748Z,15.145833
2023-05-18T14:15:16.420Z,15.149650
2023-05-18T14:20:15.801Z,15.593056
2023-05-18T14:25:16.992Z,16.140845
2023-05-18T14:30:15.771Z,16.113287
2023-05-18T14:35:15.699Z,16.593662
2023-05-18T14:40:15.785Z,16.771831
2023-05-18T14:45:15.959Z,16.941259
2023-05-18T14:50:15.921Z,16.911888
2023-05-18T14:55:16.140Z,16.816084
2023-05-18T15:00:16.797Z,17.561111
2023-05-18T15:05:16.231Z,17.496552
2023-05-18T15:10:16.856Z,17.693706
2023-05-18T15:15:16.055Z,17.813475
2023-05-18T15:20:16.756Z,17.936620
2023-05-18T15:25:16.172Z,18.448936
2023-05-18T15:30:15.929Z,19.044755
2023-05-18T15:35:16.745Z,19.117730
2023-05-18T15:40:16.236Z,19.053147
2023-05-18T15:45:16.593Z,19.224476
2023-05-18T15:50:16.173Z,18.029577
2023-05-18T15:55:16.985Z,17.979021
2023-05-18T16:00:16.024Z,17.474126
2023-05-18T16:05:16.539Z,16.955245
2023-05-18T16:10:15.898Z,17.167361
2023-05-18T16:15:16.586Z,17.620423
2023-05-18T16:20:16.192Z,17.118881
2023-05-18T16:25:15.911Z,17.570423
2023-05-18T16:30:16.201Z,17.476224
2023-05-18T16:35:16.272Z,17.222222
2023-05-18T16:40:15.665Z,17.290476
2023-05-18T16:45:16.241Z,17.146575
2023-05-18T16:50:16.002Z,17.453378
2023-05-18T16:55:16.033Z,18.039726
2023-05-18T17:00:16.037Z,18.219444
2023-05-18T17:05:16.468Z,17.500000
2023-05-18T17:10:16.291Z,17.496528
2023-05-18T17:15:16.176Z,17.063889
2023-05-18T17:20:16.585Z,17.184615
2023-05-18T17:25:16.015Z,17.580000
2023-05-18T17:30:15.817Z,18.117361
2023-05-18T17:35:15.745Z,17.838356
2023-05-18T17:40:15.993Z,17.834483
2023-05-18T17:45:15.871Z,17.974483
2023-05-18T17:50:16.176Z,18.118750
2023-05-18T17:55:15.769Z,18.345517
2023-05-18T18:00:16.672Z,18.560839
2023-05-18T18:05:16.178Z,18.663889
2023-05-18T18:10:16.120Z,19.022535
2023-05-18T18:15:16.286Z,19.250000
2023-05-18T18:20:15.935Z,19.008451
2023-05-18T18:25:15.731Z,18.892254
2023-05-18T18:30:15.777Z,19.380851
2023-05-18T18:35:15.871Z,19.869504
2023-05-18T18:40:15.784Z,19.686713
2023-05-18T18:45:16.887Z,19.729577
2023-05-18T18:50:15.903Z,19.811189
2023-05-18T18:55:16.383Z,20.025175
2023-05-18T19:00:16.943Z,20.163121
2023-05-18T19:05:15.780Z,19.936170
2023-05-18T19:10:16.134Z,20.109155
2023-05-18T19:15:16.438Z,19.961972
2023-05-18T19:20:16.296Z,20.379021
2023-05-18T19:25:16.175Z,20.423944
2023-05-18T19:30:16.551Z,20.604225
2023-05-18T19:35:17.539Z,21.148592
2023-05-18T19:40:16.127Z,21.323776
2023-05-18T19:45:15.926Z,21.554225
2023-05-18T19:50:15.979Z,21.573611
2023-05-18T19:55:16.740Z,21.255634
2023-05-18T20:00:16.088Z,21.113287
2023-05-18T20:05:16.359Z,21.264336
2023-05-18T20:10:15.972Z,21.724306
2023-05-18T20:15:15.806Z,21.900000
2023-05-18T20:20:15.873Z,22.283099
2023-05-18T20:25:16.588Z,22.783688
2023-05-18T20:30:16.457Z,22.965493
2023-05-18T20:35:16.437Z,23.040141
2023-05-18T20:40:15.695Z,23.202837
2023-05-18T20:45:15.928Z,23.442553
2023-05-18T20:50:15.891Z,23.345775
2023-05-18T20:55:16.061Z,23.865734
2023-05-18T21:00:16.410Z,23.621277
2023-05-18T21:05:16.671Z,23.225352
2023-05-18T21:10:16.556Z,22.634266
2023-05-18T21:15:16.514Z,22.996454
2023-05-18T21:20:16.514Z,22.682394
2023-05-18T21:25:16.348Z,22.407746
2023-05-18T21:30:16.215Z,23.609859
2023-05-18T21:35:15.746Z,23.552817
2023-05-18T21:40:15.832Z,22.976389
2023-05-18T21:45:16.831Z,23.152143
2023-05-18T21:50:15.842Z,23.243972
2023-05-18T21:55:16.146Z,23.480142
2023-05-18T22:00:15.751Z,23.523741
2023-05-18T22:05:16.402Z,23.873571
2023-05-18T22:10:16.187Z,24.295714
2023-05-18T22:15:16.489Z,24.912057
2023-05-18T22:20:15.958Z,25.975352
2023-05-18T22:25:16.325Z,26.792199
2023-05-18T22:30:16.262Z,26.823404
2023-05-18T22:35:16.394Z,26.593007
2023-05-18T22:40:16.145Z,27.167832
2023-05-18T22:45:15.658Z,27.587234
2023-05-18T22:50:16.488Z,26.396479
2023-05-18T22:55:16.718Z,25.190141
2023-05-18T23:00:15.914Z,24.284397
2023-05-18T23:05:16.144Z,24.482143
2023-05-18T23:10:15.988Z,23.395745
2023-05-18T23:15:15.994Z,23.017021
2023-05-18T23:20:16.089Z,22.051064
2023-05-18T23:25:16.458Z,21.353521
2023-05-18T23:30:15.975Z,21.301418
2023-05-18T23:35:16.487Z,21.509220
2023-05-18T23:40:16.476Z,20.988652
2023-05-18T23:45:15.857Z,21.049645
2023-05-18T23:50:15.963Z,21.071831
2023-05-18T23:55:16.626Z,21.619858
